sensor_id;sensor_type;location;lat;lon;timestamp;temperature;humidity
49218;DHT22;35045;51.194;7.268;2023-07-20T00:01:43;18.30;99.90
49218;DHT22;35045;51.194;7.268;2023-07-20T00:04:10;18.30;99.90
49218;DHT22;35045;51.194;7.268;2023-07-20T00:06:36;18.30;99.90
49218;DHT22;35045;51.194;7.268;2023-07-20T00:09:06;18.30;99.90
49218;DHT22;35045;51.194;7.268;2023-07-20T00:11:35;18.20;99.90
49218;DHT22;35045;51.194;7.268;2023-07-20T00:14:01;18.10;99.90
49218;DHT22;35045;51.194;7.268;2023-07-20T00:16:27;18.00;99.90
49218;DHT22;35045;51.194;7.268;2023-07-20T00:18:53;18.00;99.90
49218;DHT22;35045;51.194;7.268;2023-07-20T00:21:19;18.00;99.90
49218;DHT22;35045;51.194;7.268;2023-07-20T00:23:45;17.90;99.90
49218;DHT22;35045;51.194;7.268;2023-07-20T00:26:11;17.90;99.90
49218;DHT22;35045;51.194;7.268;2023-07-20T00:28:38;17.90;99.90
49218;DHT22;35045;51.194;7.268;2023-07-20T00:31:04;17.80;99.90
49218;DHT22;35045;51.194;7.268;2023-07-20T00:33:30;17.80;99.90
49218;DHT22;35045;51.194;7.268;2023-07-20T00:35:56;17.70;99.90
49218;DHT22;35045;51.194;7.268;2023-07-20T00:38:22;17.60;99.90
49218;DHT22;35045;51.194;7.268;2023-07-20T00:40:48;17.60;99.90
49218;DHT22;35045;51.194;7.268;2023-07-20T00:43:15;17.50;99.90
49218;DHT22;35045;51.194;7.268;2023-07-20T00:45:41;17.50;99.90
49218;DHT22;35045;51.194;7.268;2023-07-20T00:48:08;17.50;99.90
49218;DHT22;35045;51.194;7.268;2023-07-20T00:50:34;17.50;99.90
49218;DHT22;35045;51.194;7.268;2023-07-20T00:53:00;17.50;99.90
49218;DHT22;35045;51.194;7.268;2023-07-20T00:55:29;17.50;99.90
49218;DHT22;35045;51.194;7.268;2023-07-20T00:57:55;17.40;99.90
49218;DHT22;35045;51.194;7.268;2023-07-20T01:00:22;17.40;99.90
49218;DHT22;35045;51.194;7.268;2023-07-20T01:02:48;17.40;99.90
49218;DHT22;35045;51.194;7.268;2023-07-20T01:05:14;17.40;99.90
49218;DHT22;35045;51.194;7.268;2023-07-20T01:07:53;17.40;99.90
49218;DHT22;35045;51.194;7.268;2023-07-20T01:12:52;17.40;99.90
49218;DHT22;35045;51.194;7.268;2023-07-20T01:15:18;17.30;99.90
49218;DHT22;35045;51.194;7.268;2023-07-20T01:17:45;17.30;99.90
49218;DHT22;35045;51.194;7.268;2023-07-20T01:20:14;17.30;99.90
49218;DHT22;35045;51.194;7.268;2023-07-20T01:33:07;17.10;99.90
49218;DHT22;35045;51.194;7.268;2023-07-20T01:35:34;17.10;99.90
49218;DHT22;35045;51.194;7.268;2023-07-20T01:38:00;17.00;99.90
49218;DHT22;35045;51.194;7.268;2023-07-20T01:40:26;17.00;99.90
49218;DHT22;35045;51.194;7.268;2023-07-20T01:42:53;17.10;99.90
49218;DHT22;35045;51.194;7.268;2023-07-20T01:45:19;17.00;99.90
49218;DHT22;35045;51.194;7.268;2023-07-20T01:47:45;17.00;99.90
49218;DHT22;35045;51.194;7.268;2023-07-20T01:50:11;17.00;99.90
49218;DHT22;35045;51.194;7.268;2023-07-20T01:52:37;16.90;99.90
49218;DHT22;35045;51.194;7.268;2023-07-20T01:55:03;16.90;99.90
49218;DHT22;35045;51.194;7.268;2023-07-20T01:57:30;16.90;99.90
49218;DHT22;35045;51.194;7.268;2023-07-20T01:59:56;16.90;99.90
49218;DHT22;35045;51.194;7.268;2023-07-20T02:02:23;16.80;99.90
49218;DHT22;35045;51.194;7.268;2023-07-20T02:04:50;16.80;99.90
49218;DHT22;35045;51.194;7.268;2023-07-20T02:07:16;16.80;99.90
49218;DHT22;35045;51.194;7.268;2023-07-20T02:09:42;16.80;99.90
49218;DHT22;35045;51.194;7.268;2023-07-20T02:12:08;16.80;99.90
49218;DHT22;35045;51.194;7.268;2023-07-20T02:14:34;16.70;99.90
49218;DHT22;35045;51.194;7.268;2023-07-20T02:17:00;16.70;99.90
49218;DHT22;35045;51.194;7.268;2023-07-20T02:19:27;16.70;99.90
49218;DHT22;35045;51.194;7.268;2023-07-20T02:21:53;16.60;99.90
49218;DHT22;35045;51.194;7.268;2023-07-20T02:24:19;16.60;99.90
49218;DHT22;35045;51.194;7.268;2023-07-20T02:26:45;16.60;99.90
49218;DHT22;35045;51.194;7.268;2023-07-20T02:29:11;16.60;99.90
49218;DHT22;35045;51.194;7.268;2023-07-20T02:31:37;16.50;99.90
49218;DHT22;35045;51.194;7.268;2023-07-20T02:34:05;16.50;99.90
49218;DHT22;35045;51.194;7.268;2023-07-20T02:36:32;16.50;99.90
49218;DHT22;35045;51.194;7.268;2023-07-20T02:39:01;16.40;99.90
49218;DHT22;35045;51.194;7.268;2023-07-20T02:41:30;16.50;99.90
49218;DHT22;35045;51.194;7.268;2023-07-20T02:43:56;16.40;99.90
49218;DHT22;35045;51.194;7.268;2023-07-20T02:46:22;16.40;99.90
49218;DHT22;35045;51.194;7.268;2023-07-20T02:48:48;16.40;99.90
49218;DHT22;35045;51.194;7.268;2023-07-20T02:51:14;16.40;99.90
49218;DHT22;35045;51.194;7.268;2023-07-20T02:53:40;16.40;99.90
49218;DHT22;35045;51.194;7.268;2023-07-20T02:56:07;16.40;99.90
49218;DHT22;35045;51.194;7.268;2023-07-20T02:58:40;16.30;99.90
49218;DHT22;35045;51.194;7.268;2023-07-20T03:01:06;16.30;99.90
49218;DHT22;35045;51.194;7.268;2023-07-20T03:03:32;16.30;99.90
49218;DHT22;35045;51.194;7.268;2023-07-20T03:06:05;16.30;99.90
49218;DHT22;35045;51.194;7.268;2023-07-20T03:08:31;16.30;99.90
49218;DHT22;35045;51.194;7.268;2023-07-20T03:10:57;16.30;99.90
49218;DHT22;35045;51.194;7.268;2023-07-20T03:13:23;16.30;99.90
49218;DHT22;35045;51.194;7.268;2023-07-20T03:15:51;16.30;99.90
49218;DHT22;35045;51.194;7.268;2023-07-20T03:18:17;16.30;99.90
49218;DHT22;35045;51.194;7.268;2023-07-20T03:20:43;16.40;99.90
49218;DHT22;35045;51.194;7.268;2023-07-20T03:23:09;16.40;99.90
49218;DHT22;35045;51.194;7.268;2023-07-20T03:25:35;16.40;99.90
49218;DHT22;35045;51.194;7.268;2023-07-20T03:28:03;16.40;99.90
49218;DHT22;35045;51.194;7.268;2023-07-20T03:30:29;16.40;99.90
49218;DHT22;35045;51.194;7.268;2023-07-20T03:32:55;16.40;99.90
49218;DHT22;35045;51.194;7.268;2023-07-20T03:35:21;16.40;99.90
49218;DHT22;35045;51.194;7.268;2023-07-20T03:37:47;16.40;99.90
49218;DHT22;35045;51.194;7.268;2023-07-20T03:40:13;16.40;99.90
49218;DHT22;35045;51.194;7.268;2023-07-20T03:42:40;16.30;99.90
49218;DHT22;35045;51.194;7.268;2023-07-20T03:45:07;16.30;99.90
49218;DHT22;35045;51.194;7.268;2023-07-20T03:47:33;16.30;99.90
49218;DHT22;35045;51.194;7.268;2023-07-20T03:49:59;16.30;99.90
49218;DHT22;35045;51.194;7.268;2023-07-20T03:52:25;16.30;99.90
49218;DHT22;35045;51.194;7.268;2023-07-20T03:54:51;16.30;99.90
49218;DHT22;35045;51.194;7.268;2023-07-20T03:57:17;16.40;99.90
49218;DHT22;35045;51.194;7.268;2023-07-20T03:59:46;16.40;99.90
49218;DHT22;35045;51.194;7.268;2023-07-20T04:02:12;16.40;99.90
49218;DHT22;35045;51.194;7.268;2023-07-20T04:04:38;16.40;99.90
49218;DHT22;35045;51.194;7.268;2023-07-20T04:07:04;16.40;99.90
49218;DHT22;35045;51.194;7.268;2023-07-20T04:09:31;16.40;99.90
49218;DHT22;35045;51.194;7.268;2023-07-20T04:11:57;16.40;99.90
49218;DHT22;35045;51.194;7.268;2023-07-20T04:14:23;16.30;99.90
49218;DHT22;35045;51.194;7.268;2023-07-20T04:16:49;16.30;99.90
49218;DHT22;35045;51.194;7.268;2023-07-20T04:19:17;16.40;99.90
49218;DHT22;35045;51.194;7.268;2023-07-20T04:21:43;16.30;99.90
49218;DHT22;35045;51.194;7.268;2023-07-20T04:24:10;16.30;99.90
49218;DHT22;35045;51.194;7.268;2023-07-20T04:26:36;16.30;99.90
49218;DHT22;35045;51.194;7.268;2023-07-20T04:29:02;16.30;99.90
49218;DHT22;35045;51.194;7.268;2023-07-20T04:31:29;16.30;99.90
49218;DHT22;35045;51.194;7.268;2023-07-20T04:33:58;16.30;99.90
49218;DHT22;35045;51.194;7.268;2023-07-20T04:36:24;16.30;99.90
49218;DHT22;35045;51.194;7.268;2023-07-20T04:38:50;16.30;99.90
49218;DHT22;35045;51.194;7.268;2023-07-20T04:41:16;16.30;99.90
49218;DHT22;35045;51.194;7.268;2023-07-20T04:43:42;16.30;99.90
49218;DHT22;35045;51.194;7.268;2023-07-20T04:46:09;16.20;99.90
49218;DHT22;35045;51.194;7.268;2023-07-20T04:48:35;16.20;99.90
49218;DHT22;35045;51.194;7.268;2023-07-20T04:51:01;16.20;99.90
49218;DHT22;35045;51.194;7.268;2023-07-20T04:53:27;16.20;99.90
49218;DHT22;35045;51.194;7.268;2023-07-20T04:55:53;16.20;99.90
49218;DHT22;35045;51.194;7.268;2023-07-20T04:58:20;16.20;99.90
49218;DHT22;35045;51.194;7.268;2023-07-20T05:00:47;16.20;99.90
49218;DHT22;35045;51.194;7.268;2023-07-20T05:03:13;16.20;99.90
49218;DHT22;35045;51.194;7.268;2023-07-20T05:05:39;16.20;99.90
49218;DHT22;35045;51.194;7.268;2023-07-20T05:08:06;16.30;99.90
49218;DHT22;35045;51.194;7.268;2023-07-20T05:10:32;16.30;99.90
49218;DHT22;35045;51.194;7.268;2023-07-20T05:13:00;16.40;99.90
49218;DHT22;35045;51.194;7.268;2023-07-20T05:15:26;16.30;99.90
49218;DHT22;35045;51.194;7.268;2023-07-20T05:17:52;16.20;99.90
49218;DHT22;35045;51.194;7.268;2023-07-20T05:20:19;16.30;99.90
49218;DHT22;35045;51.194;7.268;2023-07-20T05:22:45;16.30;99.90
49218;DHT22;35045;51.194;7.268;2023-07-20T05:25:11;16.40;99.90
49218;DHT22;35045;51.194;7.268;2023-07-20T05:27:38;16.40;99.90
49218;DHT22;35045;51.194;7.268;2023-07-20T05:30:04;16.30;99.90
49218;DHT22;35045;51.194;7.268;2023-07-20T05:32:30;16.30;99.90
49218;DHT22;35045;51.194;7.268;2023-07-20T05:34:57;16.40;99.90
49218;DHT22;35045;51.194;7.268;2023-07-20T05:37:23;16.50;99.90
49218;DHT22;35045;51.194;7.268;2023-07-20T05:39:49;16.40;99.90
49218;DHT22;35045;51.194;7.268;2023-07-20T05:42:15;16.50;99.90
49218;DHT22;35045;51.194;7.268;2023-07-20T05:44:41;16.60;99.90
49218;DHT22;35045;51.194;7.268;2023-07-20T05:47:07;16.60;99.90
49218;DHT22;35045;51.194;7.268;2023-07-20T05:49:34;16.70;99.90
49218;DHT22;35045;51.194;7.268;2023-07-20T05:52:00;16.80;99.90
49218;DHT22;35045;51.194;7.268;2023-07-20T05:54:26;16.80;99.90
49218;DHT22;35045;51.194;7.268;2023-07-20T05:56:53;16.80;99.90
49218;DHT22;35045;51.194;7.268;2023-07-20T05:59:19;16.90;99.90
49218;DHT22;35045;51.194;7.268;2023-07-20T06:01:49;16.90;99.90
49218;DHT22;35045;51.194;7.268;2023-07-20T06:04:15;16.90;99.90
49218;DHT22;35045;51.194;7.268;2023-07-20T06:06:41;17.00;99.90
49218;DHT22;35045;51.194;7.268;2023-07-20T06:09:07;17.00;99.90
49218;DHT22;35045;51.194;7.268;2023-07-20T06:11:38;17.10;99.90
49218;DHT22;35045;51.194;7.268;2023-07-20T06:14:04;17.20;99.90
49218;DHT22;35045;51.194;7.268;2023-07-20T06:16:30;17.20;99.90
49218;DHT22;35045;51.194;7.268;2023-07-20T06:18:56;17.20;99.90
49218;DHT22;35045;51.194;7.268;2023-07-20T06:21:23;17.20;99.90
49218;DHT22;35045;51.194;7.268;2023-07-20T06:23:49;17.20;99.90
49218;DHT22;35045;51.194;7.268;2023-07-20T06:26:15;17.20;99.90
49218;DHT22;35045;51.194;7.268;2023-07-20T06:28:41;17.30;99.90
49218;DHT22;35045;51.194;7.268;2023-07-20T06:31:07;17.40;99.90
49218;DHT22;35045;51.194;7.268;2023-07-20T06:33:33;17.40;99.90
49218;DHT22;35045;51.194;7.268;2023-07-20T06:36:00;17.40;99.90
49218;DHT22;35045;51.194;7.268;2023-07-20T06:38:26;17.50;99.90
49218;DHT22;35045;51.194;7.268;2023-07-20T06:40:55;17.50;99.90
49218;DHT22;35045;51.194;7.268;2023-07-20T06:43:21;17.60;99.90
49218;DHT22;35045;51.194;7.268;2023-07-20T06:45:51;17.70;99.90
49218;DHT22;35045;51.194;7.268;2023-07-20T06:48:18;17.70;99.90
49218;DHT22;35045;51.194;7.268;2023-07-20T06:50:44;17.50;99.90
49218;DHT22;35045;51.194;7.268;2023-07-20T06:53:10;17.50;99.90
49218;DHT22;35045;51.194;7.268;2023-07-20T06:55:36;17.40;99.90
49218;DHT22;35045;51.194;7.268;2023-07-20T06:58:05;17.40;99.90
49218;DHT22;35045;51.194;7.268;2023-07-20T07:00:31;17.50;99.90
49218;DHT22;35045;51.194;7.268;2023-07-20T07:02:57;17.70;99.90
49218;DHT22;35045;51.194;7.268;2023-07-20T07:05:23;17.90;99.90
49218;DHT22;35045;51.194;7.268;2023-07-20T07:07:49;17.90;99.90
49218;DHT22;35045;51.194;7.268;2023-07-20T07:10:15;18.00;99.90
49218;DHT22;35045;51.194;7.268;2023-07-20T07:12:41;18.10;99.90
49218;DHT22;35045;51.194;7.268;2023-07-20T07:15:08;18.40;99.90
49218;DHT22;35045;51.194;7.268;2023-07-20T07:17:34;18.50;99.90
49218;DHT22;35045;51.194;7.268;2023-07-20T07:20:01;18.60;99.90
49218;DHT22;35045;51.194;7.268;2023-07-20T07:22:27;18.50;99.90
49218;DHT22;35045;51.194;7.268;2023-07-20T07:24:53;18.70;99.90
49218;DHT22;35045;51.194;7.268;2023-07-20T07:27:19;18.90;99.90
49218;DHT22;35045;51.194;7.268;2023-07-20T07:29:45;19.00;99.90
49218;DHT22;35045;51.194;7.268;2023-07-20T07:32:12;19.20;99.90
49218;DHT22;35045;51.194;7.268;2023-07-20T07:34:38;19.10;99.90
49218;DHT22;35045;51.194;7.268;2023-07-20T07:37:04;18.90;99.90
49218;DHT22;35045;51.194;7.268;2023-07-20T07:39:31;18.50;99.90
49218;DHT22;35045;51.194;7.268;2023-07-20T07:41:59;18.40;99.90
49218;DHT22;35045;51.194;7.268;2023-07-20T07:44:25;18.20;99.90
49218;DHT22;35045;51.194;7.268;2023-07-20T07:46:51;18.20;99.90
49218;DHT22;35045;51.194;7.268;2023-07-20T07:49:17;18.10;99.90
49218;DHT22;35045;51.194;7.268;2023-07-20T07:51:45;18.00;99.90
49218;DHT22;35045;51.194;7.268;2023-07-20T07:54:11;17.90;99.90
49218;DHT22;35045;51.194;7.268;2023-07-20T07:56:37;17.90;99.90
49218;DHT22;35045;51.194;7.268;2023-07-20T07:59:03;18.00;99.90
49218;DHT22;35045;51.194;7.268;2023-07-20T08:01:30;18.20;99.90
49218;DHT22;35045;51.194;7.268;2023-07-20T08:03:56;18.50;99.90
49218;DHT22;35045;51.194;7.268;2023-07-20T08:06:23;18.60;99.90
49218;DHT22;35045;51.194;7.268;2023-07-20T08:08:50;18.70;99.90
49218;DHT22;35045;51.194;7.268;2023-07-20T08:11:16;18.70;99.90
49218;DHT22;35045;51.194;7.268;2023-07-20T08:13:43;18.70;99.90
49218;DHT22;35045;51.194;7.268;2023-07-20T08:16:09;19.10;99.90
49218;DHT22;35045;51.194;7.268;2023-07-20T08:18:35;19.30;99.90
49218;DHT22;35045;51.194;7.268;2023-07-20T08:21:01;19.40;99.90
49218;DHT22;35045;51.194;7.268;2023-07-20T08:23:28;19.70;99.90
49218;DHT22;35045;51.194;7.268;2023-07-20T08:25:54;19.80;99.90
49218;DHT22;35045;51.194;7.268;2023-07-20T08:28:21;20.00;99.90
49218;DHT22;35045;51.194;7.268;2023-07-20T08:30:47;19.90;99.90
49218;DHT22;35045;51.194;7.268;2023-07-20T08:33:14;19.60;99.90
49218;DHT22;35045;51.194;7.268;2023-07-20T08:35:40;19.50;99.90
49218;DHT22;35045;51.194;7.268;2023-07-20T08:38:06;19.10;99.90
49218;DHT22;35045;51.194;7.268;2023-07-20T08:40:33;19.20;99.90
49218;DHT22;35045;51.194;7.268;2023-07-20T08:43:00;19.50;99.90
49218;DHT22;35045;51.194;7.268;2023-07-20T08:45:27;20.10;99.90
49218;DHT22;35045;51.194;7.268;2023-07-20T08:47:55;20.10;99.90
49218;DHT22;35045;51.194;7.268;2023-07-20T08:50:21;19.70;99.90
49218;DHT22;35045;51.194;7.268;2023-07-20T08:52:48;19.60;99.90
49218;DHT22;35045;51.194;7.268;2023-07-20T08:55:16;19.50;99.90
49218;DHT22;35045;51.194;7.268;2023-07-20T08:57:43;19.50;99.90
49218;DHT22;35045;51.194;7.268;2023-07-20T09:00:11;19.80;99.90
49218;DHT22;35045;51.194;7.268;2023-07-20T09:02:39;20.00;99.90
49218;DHT22;35045;51.194;7.268;2023-07-20T09:05:07;20.40;99.90
49218;DHT22;35045;51.194;7.268;2023-07-20T09:07:34;20.50;99.90
49218;DHT22;35045;51.194;7.268;2023-07-20T09:10:01;20.10;99.90
49218;DHT22;35045;51.194;7.268;2023-07-20T09:12:32;19.90;99.90
49218;DHT22;35045;51.194;7.268;2023-07-20T09:15:00;19.80;99.90
49218;DHT22;35045;51.194;7.268;2023-07-20T09:17:27;20.00;99.90
49218;DHT22;35045;51.194;7.268;2023-07-20T09:19:55;20.40;99.90
49218;DHT22;35045;51.194;7.268;2023-07-20T09:22:21;20.90;99.90
49218;DHT22;35045;51.194;7.268;2023-07-20T09:24:47;21.20;99.90
49218;DHT22;35045;51.194;7.268;2023-07-20T09:27:13;21.10;99.60
49218;DHT22;35045;51.194;7.268;2023-07-20T09:29:48;21.00;99.90
49218;DHT22;35045;51.194;7.268;2023-07-20T09:32:17;20.80;99.90
49218;DHT22;35045;51.194;7.268;2023-07-20T09:34:47;20.50;99.90
49218;DHT22;35045;51.194;7.268;2023-07-20T09:37:14;20.30;99.90
49218;DHT22;35045;51.194;7.268;2023-07-20T09:39:43;20.00;99.90
49218;DHT22;35045;51.194;7.268;2023-07-20T09:42:30;20.10;99.90
49218;DHT22;35045;51.194;7.268;2023-07-20T09:44:59;20.50;99.90
49218;DHT22;35045;51.194;7.268;2023-07-20T09:47:25;20.70;99.90
49218;DHT22;35045;51.194;7.268;2023-07-20T09:49:59;20.80;99.60
49218;DHT22;35045;51.194;7.268;2023-07-20T09:52:30;20.50;98.40
49218;DHT22;35045;51.194;7.268;2023-07-20T09:55:00;20.30;99.10
49218;DHT22;35045;51.194;7.268;2023-07-20T09:57:26;20.40;99.50
49218;DHT22;35045;51.194;7.268;2023-07-20T09:59:52;20.70;99.20
49218;DHT22;35045;51.194;7.268;2023-07-20T10:02:20;20.70;97.10
49218;DHT22;35045;51.194;7.268;2023-07-20T10:04:48;20.70;98.20
49218;DHT22;35045;51.194;7.268;2023-07-20T10:07:16;21.10;98.00
49218;DHT22;35045;51.194;7.268;2023-07-20T10:09:42;21.50;96.70
49218;DHT22;35045;51.194;7.268;2023-07-20T10:12:11;21.80;96.70
49218;DHT22;35045;51.194;7.268;2023-07-20T10:14:42;21.80;96.70
49218;DHT22;35045;51.194;7.268;2023-07-20T10:17:11;21.60;97.30
49218;DHT22;35045;51.194;7.268;2023-07-20T10:19:43;21.20;97.70
49218;DHT22;35045;51.194;7.268;2023-07-20T10:22:17;20.80;98.30
49218;DHT22;35045;51.194;7.268;2023-07-20T10:24:45;20.60;98.70
49218;DHT22;35045;51.194;7.268;2023-07-20T10:27:13;20.50;98.50
49218;DHT22;35045;51.194;7.268;2023-07-20T10:29:40;20.30;98.90
49218;DHT22;35045;51.194;7.268;2023-07-20T10:32:07;20.30;98.80
49218;DHT22;35045;51.194;7.268;2023-07-20T10:34:34;20.40;98.50
49218;DHT22;35045;51.194;7.268;2023-07-20T10:37:00;20.50;98.60
49218;DHT22;35045;51.194;7.268;2023-07-20T10:39:30;20.60;98.10
49218;DHT22;35045;51.194;7.268;2023-07-20T10:42:09;20.90;98.30
49218;DHT22;35045;51.194;7.268;2023-07-20T10:44:41;20.90;97.20
49218;DHT22;35045;51.194;7.268;2023-07-20T10:47:09;20.90;97.20
49218;DHT22;35045;51.194;7.268;2023-07-20T10:49:57;21.10;97.60
49218;DHT22;35045;51.194;7.268;2023-07-20T10:52:22;21.00;97.10
49218;DHT22;35045;51.194;7.268;2023-07-20T10:54:49;21.00;96.80
49218;DHT22;35045;51.194;7.268;2023-07-20T10:57:25;21.00;96.80
49218;DHT22;35045;51.194;7.268;2023-07-20T10:59:51;20.70;97.00
49218;DHT22;35045;51.194;7.268;2023-07-20T11:02:18;20.80;97.40
49218;DHT22;35045;51.194;7.268;2023-07-20T11:04:45;21.00;97.60
49218;DHT22;35045;51.194;7.268;2023-07-20T11:07:15;21.20;97.30
49218;DHT22;35045;51.194;7.268;2023-07-20T11:09:42;21.20;97.80
49218;DHT22;35045;51.194;7.268;2023-07-20T11:12:09;21.00;96.80
49218;DHT22;35045;51.194;7.268;2023-07-20T11:14:35;20.80;96.80
49218;DHT22;35045;51.194;7.268;2023-07-20T11:17:12;20.70;96.90
49218;DHT22;35045;51.194;7.268;2023-07-20T11:19:39;20.80;97.00
49218;DHT22;35045;51.194;7.268;2023-07-20T11:22:09;21.10;96.90
49218;DHT22;35045;51.194;7.268;2023-07-20T11:24:38;21.30;97.10
49218;DHT22;35045;51.194;7.268;2023-07-20T11:27:05;21.30;96.40
49218;DHT22;35045;51.194;7.268;2023-07-20T11:29:31;21.30;96.20
49218;DHT22;35045;51.194;7.268;2023-07-20T11:31:58;21.50;95.40
49218;DHT22;35045;51.194;7.268;2023-07-20T11:34:27;21.80;95.40
49218;DHT22;35045;51.194;7.268;2023-07-20T11:36:53;21.90;95.10
49218;DHT22;35045;51.194;7.268;2023-07-20T11:39:23;22.10;95.60
49218;DHT22;35045;51.194;7.268;2023-07-20T11:41:52;22.10;94.80
49218;DHT22;35045;51.194;7.268;2023-07-20T11:44:18;22.10;95.70
49218;DHT22;35045;51.194;7.268;2023-07-20T11:46:45;22.00;96.10
49218;DHT22;35045;51.194;7.268;2023-07-20T11:49:11;21.80;95.30
49218;DHT22;35045;51.194;7.268;2023-07-20T11:51:38;21.60;95.70
49218;DHT22;35045;51.194;7.268;2023-07-20T11:54:04;21.50;96.10
49218;DHT22;35045;51.194;7.268;2023-07-20T11:56:30;21.60;96.50
49218;DHT22;35045;51.194;7.268;2023-07-20T11:58:59;21.50;95.30
49218;DHT22;35045;51.194;7.268;2023-07-20T12:01:27;21.50;96.00
49218;DHT22;35045;51.194;7.268;2023-07-20T12:04:01;21.50;96.00
49218;DHT22;35045;51.194;7.268;2023-07-20T12:06:28;21.70;95.40
49218;DHT22;35045;51.194;7.268;2023-07-20T12:08:55;21.90;95.30
49218;DHT22;35045;51.194;7.268;2023-07-20T12:11:32;21.80;94.90
49218;DHT22;35045;51.194;7.268;2023-07-20T12:13:58;21.70;94.30
49218;DHT22;35045;51.194;7.268;2023-07-20T12:16:29;21.80;95.00
49218;DHT22;35045;51.194;7.268;2023-07-20T12:19:05;21.80;93.70
49218;DHT22;35045;51.194;7.268;2023-07-20T12:21:33;21.80;94.40
49218;DHT22;35045;51.194;7.268;2023-07-20T12:23:59;21.70;93.80
49218;DHT22;35045;51.194;7.268;2023-07-20T12:26:25;21.70;93.90
49218;DHT22;35045;51.194;7.268;2023-07-20T12:28:52;22.00;94.00
49218;DHT22;35045;51.194;7.268;2023-07-20T12:31:18;22.10;93.90
49218;DHT22;35045;51.194;7.268;2023-07-20T12:33:44;22.20;92.40
49218;DHT22;35045;51.194;7.268;2023-07-20T12:36:10;22.40;92.40
49218;DHT22;35045;51.194;7.268;2023-07-20T12:38:36;22.50;91.70
49218;DHT22;35045;51.194;7.268;2023-07-20T12:41:02;22.40;92.40
49218;DHT22;35045;51.194;7.268;2023-07-20T12:43:29;22.40;91.90
49218;DHT22;35045;51.194;7.268;2023-07-20T12:45:55;22.50;91.50
49218;DHT22;35045;51.194;7.268;2023-07-20T12:48:21;22.50;91.50
49218;DHT22;35045;51.194;7.268;2023-07-20T12:50:48;22.50;91.50
49218;DHT22;35045;51.194;7.268;2023-07-20T12:53:14;22.30;92.80
49218;DHT22;35045;51.194;7.268;2023-07-20T12:55:40;22.20;92.60
49218;DHT22;35045;51.194;7.268;2023-07-20T12:58:07;22.10;93.00
49218;DHT22;35045;51.194;7.268;2023-07-20T13:00:33;22.10;92.50
49218;DHT22;35045;51.194;7.268;2023-07-20T13:02:59;22.40;92.40
49218;DHT22;35045;51.194;7.268;2023-07-20T13:05:28;22.60;92.70
49218;DHT22;35045;51.194;7.268;2023-07-20T13:07:57;22.70;92.60
49218;DHT22;35045;51.194;7.268;2023-07-20T13:10:27;23.00;92.40
49218;DHT22;35045;51.194;7.268;2023-07-20T13:12:53;23.20;91.80
49218;DHT22;35045;51.194;7.268;2023-07-20T13:15:19;23.30;91.40
49218;DHT22;35045;51.194;7.268;2023-07-20T13:17:45;23.30;91.50
49218;DHT22;35045;51.194;7.268;2023-07-20T13:20:11;23.50;91.60
49218;DHT22;35045;51.194;7.268;2023-07-20T13:22:38;23.50;91.90
49218;DHT22;35045;51.194;7.268;2023-07-20T13:25:04;23.40;91.00
49218;DHT22;35045;51.194;7.268;2023-07-20T13:27:30;23.10;90.80
49218;DHT22;35045;51.194;7.268;2023-07-20T13:29:58;23.00;91.00
49218;DHT22;35045;51.194;7.268;2023-07-20T13:32:24;22.70;91.90
49218;DHT22;35045;51.194;7.268;2023-07-20T13:34:50;22.50;91.10
49218;DHT22;35045;51.194;7.268;2023-07-20T13:37:16;22.40;91.60
49218;DHT22;35045;51.194;7.268;2023-07-20T13:39:42;22.30;91.50
49218;DHT22;35045;51.194;7.268;2023-07-20T13:42:09;22.20;91.30
49218;DHT22;35045;51.194;7.268;2023-07-20T13:44:36;22.20;91.50
49218;DHT22;35045;51.194;7.268;2023-07-20T13:47:03;22.10;91.30
49218;DHT22;35045;51.194;7.268;2023-07-20T13:49:34;22.20;91.40
49218;DHT22;35045;51.194;7.268;2023-07-20T13:52:01;22.30;91.70
49218;DHT22;35045;51.194;7.268;2023-07-20T13:54:30;22.40;91.70
49218;DHT22;35045;51.194;7.268;2023-07-20T13:56:56;22.50;90.90
49218;DHT22;35045;51.194;7.268;2023-07-20T13:59:22;22.80;90.70
49218;DHT22;35045;51.194;7.268;2023-07-20T14:01:49;23.20;90.70
49218;DHT22;35045;51.194;7.268;2023-07-20T14:04:15;23.80;89.40
49218;DHT22;35045;51.194;7.268;2023-07-20T14:06:42;24.40;88.00
49218;DHT22;35045;51.194;7.268;2023-07-20T14:09:08;24.40;88.30
49218;DHT22;35045;51.194;7.268;2023-07-20T14:11:34;24.30;88.70
49218;DHT22;35045;51.194;7.268;2023-07-20T14:14:03;24.30;87.40
49218;DHT22;35045;51.194;7.268;2023-07-20T14:16:29;23.90;89.50
49218;DHT22;35045;51.194;7.268;2023-07-20T14:18:57;23.60;88.60
49218;DHT22;35045;51.194;7.268;2023-07-20T14:21:23;23.30;89.50
49218;DHT22;35045;51.194;7.268;2023-07-20T14:23:51;23.00;90.10
49218;DHT22;35045;51.194;7.268;2023-07-20T14:26:18;22.70;90.00
49218;DHT22;35045;51.194;7.268;2023-07-20T14:28:47;22.40;90.90
49218;DHT22;35045;51.194;7.268;2023-07-20T14:31:13;22.30;91.40
49218;DHT22;35045;51.194;7.268;2023-07-20T14:33:39;22.20;91.00
49218;DHT22;35045;51.194;7.268;2023-07-20T14:36:06;22.00;90.60
49218;DHT22;35045;51.194;7.268;2023-07-20T14:38:33;21.70;91.10
49218;DHT22;35045;51.194;7.268;2023-07-20T14:40:59;21.60;91.40
49218;DHT22;35045;51.194;7.268;2023-07-20T14:43:26;21.40;91.50
49218;DHT22;35045;51.194;7.268;2023-07-20T14:45:52;21.30;91.80
49218;DHT22;35045;51.194;7.268;2023-07-20T14:48:18;21.30;92.20
49218;DHT22;35045;51.194;7.268;2023-07-20T14:50:44;21.20;92.20
49218;DHT22;35045;51.194;7.268;2023-07-20T14:53:12;21.10;92.30
49218;DHT22;35045;51.194;7.268;2023-07-20T14:55:43;21.00;92.60
49218;DHT22;35045;51.194;7.268;2023-07-20T14:58:10;21.00;92.60
49218;DHT22;35045;51.194;7.268;2023-07-20T15:00:36;21.00;92.60
49218;DHT22;35045;51.194;7.268;2023-07-20T15:03:02;20.90;92.80
49218;DHT22;35045;51.194;7.268;2023-07-20T15:05:29;21.00;92.80
49218;DHT22;35045;51.194;7.268;2023-07-20T15:07:55;21.00;92.70
49218;DHT22;35045;51.194;7.268;2023-07-20T15:10:21;21.10;92.70
49218;DHT22;35045;51.194;7.268;2023-07-20T15:12:48;21.00;92.80
49218;DHT22;35045;51.194;7.268;2023-07-20T15:15:14;21.00;92.90
49218;DHT22;35045;51.194;7.268;2023-07-20T15:17:41;21.00;93.60
49218;DHT22;35045;51.194;7.268;2023-07-20T15:20:08;20.90;93.20
49218;DHT22;35045;51.194;7.268;2023-07-20T15:22:34;20.90;93.00
49218;DHT22;35045;51.194;7.268;2023-07-20T15:25:04;21.00;93.30
49218;DHT22;35045;51.194;7.268;2023-07-20T15:27:30;21.10;93.20
49218;DHT22;35045;51.194;7.268;2023-07-20T15:29:57;21.30;92.70
49218;DHT22;35045;51.194;7.268;2023-07-20T15:32:23;21.60;92.80
49218;DHT22;35045;51.194;7.268;2023-07-20T15:34:49;21.80;92.10
49218;DHT22;35045;51.194;7.268;2023-07-20T15:37:15;22.50;91.70
49218;DHT22;35045;51.194;7.268;2023-07-20T15:39:41;24.60;90.60
49218;DHT22;35045;51.194;7.268;2023-07-20T15:42:07;25.30;87.20